Time;durP1;ratioP1;P1;durP2;ratioP2;P2;SDS_P1;SDS_P2;PMS_P1;PMS_P2;Temp;Humidity;BMP_temperature;BMP_pressure;BME280_temperature;BME280_humidity;BME280_pressure;Samples;Min_cycle;Max_cycle;Signal;HPM_P1;HPM_P2
2022/05/24 00:01:52;;;;;;;19.40;4.70;;;;;;;12.14;100.00;100198.91;5275685;28;20024;-73
2022/05/24 00:04:23;;;;;;;19.15;5.22;;;;;;;12.14;100.00;100204.28;5284770;28;20058;-73
2022/05/24 00:06:53;;;;;;;11.45;4.32;;;;;;;12.10;100.00;100209.25;5287264;28;20046;-72
2022/05/24 00:09:25;;;;;;;18.02;5.13;;;;;;;12.06;100.00;100205.28;5280439;28;20047;-72
2022/05/24 00:11:55;;;;;;;16.42;4.93;;;;;;;12.06;100.00;100201.75;5265917;28;20028;-72
2022/05/24 00:17:15;;;;;;;14.82;5.03;;;;;;;11.93;100.00;100197.06;5268860;28;20393;-73
2022/05/24 00:19:46;;;;;;;12.85;4.55;;;;;;;11.83;100.00;100201.91;5278144;28;20020;-73
2022/05/24 00:22:16;;;;;;;17.50;4.13;;;;;;;11.75;100.00;100204.69;5272733;28;20051;-72
2022/05/24 00:24:47;;;;;;;21.70;4.10;;;;;;;11.70;100.00;100202.59;5273611;28;20028;-73
2022/05/24 00:27:17;;;;;;;14.85;4.65;;;;;;;11.63;100.00;100202.47;5286502;28;20072;-73
2022/05/24 00:29:48;;;;;;;13.65;4.50;;;;;;;11.60;100.00;100210.94;5273255;28;20106;-73
2022/05/24 00:32:18;;;;;;;14.07;4.90;;;;;;;11.64;100.00;100214.88;5279053;28;20554;-72
2022/05/24 00:34:49;;;;;;;11.77;4.10;;;;;;;11.56;100.00;100211.50;5281187;28;20526;-72
2022/05/24 00:37:23;;;;;;;10.90;4.43;;;;;;;11.49;100.00;100211.41;5277054;28;20381;-72
2022/05/24 00:39:53;;;;;;;18.83;4.50;;;;;;;11.46;100.00;100210.97;5265940;28;20020;-72
2022/05/24 00:42:28;;;;;;;13.40;5.00;;;;;;;11.46;100.00;100203.72;5266018;28;20027;-72
2022/05/24 00:45:07;;;;;;;15.18;4.53;;;;;;;11.37;100.00;100186.88;5271656;28;20019;-73
2022/05/24 00:47:42;;;;;;;15.35;4.80;;;;;;;11.31;100.00;100182.25;5271961;28;20049;-73
2022/05/24 00:50:19;;;;;;;10.05;4.43;;;;;;;11.33;100.00;100190.13;5275060;28;20357;-72
2022/05/24 00:52:57;;;;;;;14.45;4.65;;;;;;;11.33;100.00;100208.91;5286799;28;20027;-73
2022/05/24 00:55:40;;;;;;;8.68;3.50;;;;;;;11.33;100.00;100204.38;5286294;28;20434;-73
2022/05/24 00:58:19;;;;;;;15.55;4.40;;;;;;;11.42;100.00;100186.31;5273964;28;20030;-72
2022/05/24 01:00:51;;;;;;;17.55;5.35;;;;;;;11.46;100.00;100187.63;5273284;28;20027;-72
2022/05/24 01:03:21;;;;;;;11.27;3.35;;;;;;;11.49;100.00;100184.53;5287318;28;20051;-72
2022/05/24 01:05:52;;;;;;;18.77;3.72;;;;;;;11.48;100.00;100184.72;5271447;28;20077;-72
2022/05/24 01:08:22;;;;;;;13.10;3.67;;;;;;;11.43;100.00;100184.47;5290696;28;20035;-72
2022/05/24 01:10:53;;;;;;;16.55;4.20;;;;;;;11.38;100.00;100188.53;5289564;28;20027;-72
2022/05/24 01:13:32;;;;;;;13.70;3.20;;;;;;;11.35;100.00;100183.56;5276470;28;20439;-72
2022/05/24 01:16:03;;;;;;;18.80;3.28;;;;;;;11.33;100.00;100184.75;5277238;28;20024;-71
2022/05/24 01:18:33;;;;;;;13.85;3.88;;;;;;;11.33;100.00;100184.75;5271505;28;20492;-71
2022/05/24 01:21:09;;;;;;;13.32;3.65;;;;;;;11.32;100.00;100177.72;5290795;28;20354;-72
2022/05/24 01:24:14;;;;;;;15.05;3.60;;;;;;;11.29;100.00;100172.72;5284886;28;20581;-72
2022/05/24 01:26:50;;;;;;;16.75;3.55;;;;;;;11.28;100.00;100181.78;5271313;28;20173;-72
2022/05/24 01:29:35;;;;;;;15.35;3.85;;;;;;;11.30;100.00;100198.56;5278168;28;20027;-71
2022/05/24 01:38:01;;;;;;;12.63;3.10;;;;;;;11.33;100.00;100190.13;5269142;28;20028;-71
2022/05/24 01:40:31;;;;;;;10.07;3.35;;;;;;;11.39;100.00;100189.38;5269352;28;20020;-72
2022/05/24 01:43:02;;;;;;;10.75;3.22;;;;;;;11.35;100.00;100190.78;5272385;28;20022;-71
2022/05/24 01:45:37;;;;;;;14.70;3.15;;;;;;;11.36;100.00;100192.44;5289598;28;20257;-71
2022/05/24 01:48:12;;;;;;;9.45;3.35;;;;;;;11.44;100.00;100192.31;5289972;27;20024;-71
2022/05/24 01:50:46;;;;;;;20.05;3.88;;;;;;;11.44;100.00;100186.13;5276295;28;20497;-71
2022/05/24 01:53:21;;;;;;;12.85;2.92;;;;;;;11.47;100.00;100180.38;5268724;28;20020;-71
2022/05/24 01:55:56;;;;;;;16.05;2.97;;;;;;;11.50;100.00;100170.09;5271842;28;20016;-71
2022/05/24 01:58:31;;;;;;;12.70;2.70;;;;;;;11.47;100.00;100183.91;5291567;28;20024;-71
2022/05/24 02:01:09;;;;;;;16.23;3.15;;;;;;;11.43;100.00;100192.53;5289733;28;20020;-72
2022/05/24 02:03:40;;;;;;;9.60;3.10;;;;;;;11.43;100.00;100205.94;5276687;28;20039;-71
2022/05/24 02:06:30;;;;;;;12.32;3.40;;;;;;;11.43;100.00;100206.78;5284015;28;20039;-71
2022/05/24 02:09:02;;;;;;;15.20;2.90;;;;;;;11.45;100.00;100210.13;5286219;28;20478;-71
2022/05/24 02:11:34;;;;;;;12.52;2.72;;;;;;;11.45;100.00;100206.63;5268482;28;20073;-71
2022/05/24 02:14:12;;;;;;;14.20;2.75;;;;;;;11.44;100.00;100203.06;5286522;28;20506;-71
2022/05/24 02:17:06;;;;;;;7.35;3.67;;;;;;;11.39;100.00;100206.31;5288668;27;20026;-71
2022/05/24 02:19:43;;;;;;;8.82;2.50;;;;;;;11.43;100.00;100200.59;5268236;28;20413;-71
2022/05/24 02:22:19;;;;;;;14.95;2.50;;;;;;;11.47;100.00;100188.44;5273320;28;20023;-71
2022/05/24 02:25:16;;;;;;;10.70;2.40;;;;;;;11.45;100.00;100191.31;5275531;27;20032;-71
2022/05/24 02:27:47;;;;;;;8.05;2.10;;;;;;;11.46;100.00;100194.84;5279035;28;20027;-71
2022/05/24 02:30:22;;;;;;;15.32;2.30;;;;;;;11.45;100.00;100195.88;5275449;28;20063;-72
2022/05/24 02:32:52;;;;;;;13.07;3.00;;;;;;;11.43;100.00;100197.88;5276515;28;20048;-72
2022/05/24 02:35:23;;;;;;;9.00;2.33;;;;;;;11.43;100.00;100193.34;5288088;28;20316;-71
2022/05/24 02:37:54;;;;;;;10.10;2.50;;;;;;;11.45;100.00;100201.25;5287075;28;20046;-71
2022/05/24 02:43:13;;;;;;;12.52;2.22;;;;;;;11.40;100.00;100208.00;5267810;28;20107;-73
2022/05/24 02:45:44;;;;;;;14.27;2.72;;;;;;;11.42;100.00;100213.19;5280144;28;20102;-74
2022/05/24 02:48:14;;;;;;;7.78;2.42;;;;;;;11.48;100.00;100208.91;5288630;27;20408;-73
2022/05/24 02:50:46;;;;;;;6.75;2.20;;;;;;;11.50;100.00;100218.47;5288451;28;20081;-73
2022/05/24 02:53:16;;;;;;;14.77;2.42;;;;;;;11.50;100.00;100220.31;5267575;28;20481;-74
2022/05/24 02:55:47;;;;;;;10.15;2.30;;;;;;;11.54;100.00;100230.47;5268430;28;20095;-73
2022/05/24 02:58:17;;;;;;;11.88;2.45;;;;;;;11.53;100.00;100218.06;5279591;28;20016;-73
2022/05/24 03:00:48;;;;;;;10.25;2.10;;;;;;;11.51;100.00;100213.91;5266857;28;20058;-73
2022/05/24 03:03:18;;;;;;;7.18;2.53;;;;;;;11.51;100.00;100214.75;5277625;28;20015;-73
2022/05/24 03:05:49;;;;;;;11.07;2.10;;;;;;;11.48;100.00;100215.09;5288198;28;20019;-73
2022/05/24 03:11:10;;;;;;;11.95;2.13;;;;;;;11.46;100.00;100227.06;5274841;28;20038;-72
2022/05/24 03:16:29;;;;;;;13.98;2.15;;;;;;;11.43;100.00;100236.31;5276367;28;20016;-72
2022/05/24 03:19:00;;;;;;;10.43;2.25;;;;;;;11.44;100.00;100235.28;5272719;28;20020;-72
2022/05/24 03:21:30;;;;;;;10.85;2.10;;;;;;;11.41;100.00;100233.00;5288200;28;20024;-72
2022/05/24 03:24:01;;;;;;;9.23;2.30;;;;;;;11.38;100.00;100236.06;5267237;28;20492;-73
2022/05/24 03:26:31;;;;;;;5.88;2.10;;;;;;;11.44;100.00;100246.03;5281094;28;20028;-72
2022/05/24 03:29:02;;;;;;;10.13;2.22;;;;;;;11.37;100.00;100254.03;5279212;28;20111;-72
2022/05/24 03:31:33;;;;;;;9.15;2.25;;;;;;;11.35;100.00;100258.75;5280561;28;20042;-72
2022/05/24 03:34:04;;;;;;;11.25;2.42;;;;;;;11.34;100.00;100258.91;5266545;28;20024;-72
2022/05/24 03:36:35;;;;;;;9.90;2.40;;;;;;;11.33;100.00;100244.66;5266530;28;20077;-72
2022/05/24 03:39:07;;;;;;;11.07;2.47;;;;;;;11.35;100.00;100239.13;5266926;28;20024;-73
2022/05/24 03:41:40;;;;;;;10.90;2.28;;;;;;;11.35;100.00;100231.06;5280303;28;20028;-73
2022/05/24 03:44:10;;;;;;;8.02;1.98;;;;;;;11.34;100.00;100240.94;5266429;28;20032;-72
2022/05/24 03:46:41;;;;;;;13.20;2.75;;;;;;;11.32;100.00;100251.06;5280103;28;20028;-72
2022/05/24 03:49:14;;;;;;;10.25;2.15;;;;;;;11.29;100.00;100272.91;5266578;28;20053;-72
2022/05/24 03:51:45;;;;;;;7.72;2.83;;;;;;;11.27;100.00;100269.56;5266812;28;20028;-71
2022/05/24 03:54:15;;;;;;;7.45;1.80;;;;;;;11.30;100.00;100274.59;5282214;28;20503;-72
2022/05/24 03:59:35;;;;;;;12.10;2.25;;;;;;;11.26;100.00;100264.41;5281908;27;20051;-71
2022/05/24 04:02:05;;;;;;;14.27;2.95;;;;;;;11.21;100.00;100250.69;5279659;28;20106;-71
2022/05/24 04:04:36;;;;;;;8.90;1.90;;;;;;;11.22;100.00;100236.25;5273578;28;20066;-71
2022/05/24 04:07:06;;;;;;;9.63;2.10;;;;;;;11.19;100.00;100240.13;5286748;28;20100;-72
2022/05/24 04:09:37;;;;;;;8.55;2.00;;;;;;;11.19;100.00;100241.97;5267655;28;20039;-71
2022/05/24 04:12:08;;;;;;;15.13;2.83;;;;;;;11.18;100.00;100235.78;5268417;28;20410;-72
2022/05/24 04:14:38;;;;;;;9.57;2.15;;;;;;;11.12;100.00;100226.63;5283143;28;20480;-72
2022/05/24 04:17:09;;;;;;;9.77;2.65;;;;;;;11.09;100.00;100237.75;5270666;28;20028;-72
2022/05/24 04:19:39;;;;;;;11.00;2.05;;;;;;;11.09;100.00;100256.53;5276412;28;20024;-72
2022/05/24 04:22:10;;;;;;;15.27;2.13;;;;;;;11.06;100.00;100264.94;5286977;28;20021;-72
2022/05/24 04:24:40;;;;;;;10.77;1.75;;;;;;;11.08;100.00;100275.47;5286957;28;20035;-72
2022/05/24 04:27:11;;;;;;;8.10;2.10;;;;;;;11.08;100.00;100283.53;5287245;28;20019;-72
2022/05/24 04:29:42;;;;;;;13.48;1.85;;;;;;;11.10;100.00;100290.41;5274319;28;20462;-71
2022/05/24 04:32:12;;;;;;;9.05;2.10;;;;;;;11.07;100.00;100290.75;5265763;28;20020;-71
2022/05/24 04:34:42;;;;;;;6.47;1.70;;;;;;;10.99;100.00;100301.56;5265673;28;20395;-71
2022/05/24 04:37:13;;;;;;;8.25;2.05;;;;;;;10.99;100.00;100314.97;5274239;28;20389;-71
2022/05/24 04:39:44;;;;;;;14.10;3.28;;;;;;;10.96;100.00;100318.03;5273717;28;20193;-71
2022/05/24 04:45:08;;;;;;;9.80;1.88;;;;;;;10.89;100.00;100327.81;5283590;28;20473;-71
2022/05/24 04:47:38;;;;;;;8.98;1.88;;;;;;;10.88;100.00;100328.84;5286553;28;20020;-71
2022/05/24 04:50:12;;;;;;;11.88;2.85;;;;;;;10.88;100.00;100337.72;5279599;28;20024;-71
2022/05/24 04:52:42;;;;;;;11.98;1.70;;;;;;;10.90;100.00;100332.19;5277800;28;20111;-72
2022/05/24 04:55:14;;;;;;;11.68;1.90;;;;;;;10.94;100.00;100329.97;5280979;28;20111;-72
2022/05/24 04:57:44;;;;;;;9.43;1.92;;;;;;;10.91;100.00;100338.41;5270372;28;20492;-72
2022/05/24 05:00:16;;;;;;;9.85;1.95;;;;;;;10.93;100.00;100339.88;5270229;28;20028;-72
2022/05/24 05:02:47;;;;;;;10.13;1.88;;;;;;;10.92;100.00;100343.56;5283623;28;20081;-72
2022/05/24 05:05:18;;;;;;;9.13;2.53;;;;;;;10.96;100.00;100344.06;5283928;28;20110;-73
2022/05/24 05:07:48;;;;;;;12.23;2.72;;;;;;;11.00;100.00;100342.69;5285656;28;20177;-73
2022/05/24 05:10:19;;;;;;;10.13;2.33;;;;;;;11.07;100.00;100346.31;5277110;28;20119;-72
2022/05/24 05:12:49;;;;;;;12.70;2.40;;;;;;;11.13;100.00;100346.41;5291015;28;20027;-71
2022/05/24 05:15:20;;;;;;;11.90;2.75;;;;;;;11.19;100.00;100350.19;5284940;28;20598;-73
2022/05/24 05:17:51;;;;;;;10.73;2.75;;;;;;;11.24;100.00;100355.03;5280446;28;20031;-72
2022/05/24 05:20:21;;;;;;;8.27;2.17;;;;;;;11.22;100.00;100357.06;5287013;28;20400;-72
2022/05/24 05:22:52;;;;;;;11.18;2.95;;;;;;;11.21;100.00;100363.47;5279071;28;20028;-71
2022/05/24 05:25:22;;;;;;;19.88;3.80;;;;;;;11.20;100.00;100362.63;5274593;28;20047;-71
2022/05/24 05:27:53;;;;;;;10.93;2.78;;;;;;;11.15;100.00;100354.28;5290562;27;20093;-71
2022/05/24 05:33:12;;;;;;;12.80;3.17;;;;;;;11.38;100.00;100359.59;5271788;28;20046;-71
2022/05/24 05:35:44;;;;;;;11.88;2.97;;;;;;;11.46;100.00;100361.38;5279444;28;20020;-71
2022/05/24 05:38:15;;;;;;;15.02;4.65;;;;;;;11.59;100.00;100354.31;5282156;28;20020;-73
2022/05/24 05:40:48;;;;;;;13.27;3.80;;;;;;;11.71;100.00;100359.25;5269449;28;20071;-73
2022/05/24 05:43:19;;;;;;;13.60;3.80;;;;;;;11.82;100.00;100366.88;5282535;28;20034;-71
2022/05/24 05:45:53;;;;;;;10.82;3.17;;;;;;;11.91;100.00;100361.22;5269008;28;20020;-71
2022/05/24 05:48:24;;;;;;;13.07;2.95;;;;;;;12.05;100.00;100364.06;5276855;28;20035;-72
2022/05/24 05:50:55;;;;;;;11.52;3.08;;;;;;;12.12;100.00;100354.25;5275429;28;20031;-72
2022/05/24 05:53:26;;;;;;;14.27;2.97;;;;;;;12.36;100.00;100367.38;5289875;28;20027;-72
2022/05/24 05:55:57;;;;;;;5.47;2.55;;;;;;;13.01;100.00;100378.16;5289708;28;20015;-71
2022/05/24 05:58:29;;;;;;;7.20;2.15;;;;;;;13.65;100.00;100370.78;5290085;27;20476;-70
2022/05/24 06:01:01;;;;;;;7.30;2.58;;;;;;;13.55;100.00;100370.31;5285152;28;20483;-70
2022/05/24 06:03:32;;;;;;;11.18;2.42;;;;;;;13.53;100.00;100377.78;5268959;28;20031;-71
2022/05/24 06:06:03;;;;;;;9.63;2.72;;;;;;;13.34;100.00;100373.91;5269132;28;20024;-70
2022/05/24 06:08:33;;;;;;;13.02;3.05;;;;;;;13.23;100.00;100382.53;5289814;28;20034;-71
2022/05/24 06:11:04;;;;;;;14.02;3.67;;;;;;;13.25;100.00;100385.00;5281786;27;20024;-71
2022/05/24 06:13:34;;;;;;;11.68;2.65;;;;;;;13.12;100.00;100397.31;5268753;28;20024;-70
2022/05/24 06:16:05;;;;;;;13.43;2.38;;;;;;;13.03;100.00;100397.66;5286012;28;20027;-70
2022/05/24 06:18:37;;;;;;;9.30;3.20;;;;;;;13.02;100.00;100386.03;5272483;28;20038;-71
2022/05/24 06:21:07;;;;;;;12.52;2.60;;;;;;;13.70;100.00;100389.06;5278863;28;20015;-71
2022/05/24 06:23:38;;;;;;;8.10;2.20;;;;;;;14.63;100.00;100384.13;5271243;28;20031;-70
2022/05/24 06:26:08;;;;;;;9.55;2.10;;;;;;;15.62;100.00;100394.19;5268047;28;20081;-70
2022/05/24 06:28:39;;;;;;;11.18;1.90;;;;;;;16.05;100.00;100405.31;5273638;28;20027;-70
2022/05/24 06:31:09;;;;;;;10.95;1.90;;;;;;;16.16;100.00;100410.06;5289008;28;20028;-71
2022/05/24 06:33:40;;;;;;;12.93;1.65;;;;;;;15.75;100.00;100400.41;5269266;28;20016;-71
2022/05/24 06:36:11;;;;;;;8.30;1.90;;;;;;;15.82;100.00;100403.13;5267906;28;20016;-71
2022/05/24 06:38:41;;;;;;;5.00;1.58;;;;;;;15.59;100.00;100408.09;5281582;28;20469;-71
2022/05/24 06:41:12;;;;;;;4.07;1.33;;;;;;;15.28;100.00;100401.47;5269442;28;20023;-71
2022/05/24 06:43:42;;;;;;;7.97;1.67;;;;;;;14.91;100.00;100409.13;5279838;28;20135;-71
2022/05/24 06:46:13;;;;;;;6.72;1.88;;;;;;;14.53;100.00;100411.50;5266431;28;20028;-71
2022/05/24 06:48:43;;;;;;;8.52;2.17;;;;;;;14.33;100.00;100414.09;5278456;28;20035;-70
2022/05/24 06:51:17;;;;;;;7.25;1.70;;;;;;;14.15;100.00;100416.50;5275142;28;20047;-71
2022/05/24 06:53:49;;;;;;;6.63;1.90;;;;;;;14.48;100.00;100420.22;5288969;28;20489;-71
2022/05/24 06:56:20;;;;;;;5.20;1.63;;;;;;;14.65;100.00;100438.75;5282578;28;20099;-70
2022/05/24 07:02:24;;;;;;;7.38;1.85;;;;;;;14.86;100.00;100433.22;5267906;28;20560;-70
2022/05/24 07:04:30;;;;;;;8.00;1.80;;;;;;;15.11;100.00;100430.78;5286308;28;20055;-71
2022/05/24 07:07:00;;;;;;;6.03;1.50;;;;;;;14.91;100.00;100438.84;5287362;28;20059;-70
2022/05/24 07:09:31;;;;;;;5.53;1.55;;;;;;;14.77;100.00;100446.06;5287353;28;20046;-70
2022/05/24 07:12:02;;;;;;;3.05;1.23;;;;;;;14.84;100.00;100437.16;5287029;28;20598;-71
2022/05/24 07:14:33;;;;;;;3.65;1.40;;;;;;;15.13;100.00;100450.28;5287416;28;20110;-71
2022/05/24 07:17:04;;;;;;;6.32;1.65;;;;;;;14.66;100.00;100448.50;5272006;28;20531;-70
2022/05/24 07:19:34;;;;;;;5.68;1.80;;;;;;;14.41;100.00;100443.63;5268036;28;20028;-71
2022/05/24 07:22:06;;;;;;;8.02;1.45;;;;;;;14.27;100.00;100446.47;5268206;28;20023;-71
2022/05/24 07:24:36;;;;;;;8.18;1.80;;;;;;;14.17;100.00;100446.81;5278363;28;20036;-70
2022/05/24 07:27:25;;;;;;;6.40;1.80;;;;;;;14.16;100.00;100448.69;5286575;28;20067;-71
2022/05/24 07:29:56;;;;;;;8.18;1.98;;;;;;;14.16;100.00;100461.34;5285148;28;20031;-70
2022/05/24 07:32:26;;;;;;;7.45;1.55;;;;;;;14.04;100.00;100454.84;5276082;28;20026;-70
2022/05/24 07:34:59;;;;;;;5.13;1.85;;;;;;;13.91;100.00;100461.00;5286485;28;20076;-70
2022/05/24 07:37:29;;;;;;;9.20;1.65;;;;;;;13.97;100.00;100462.88;5287396;27;20453;-71
2022/05/24 07:45:48;;;;;;;4.85;1.55;;;;;;;16.82;100.00;100477.53;5287743;28;20034;-71
2022/05/24 07:48:20;;;;;;;6.93;1.50;;;;;;;16.72;100.00;100481.75;5280414;28;20028;-71
2022/05/24 07:50:51;;;;;;;8.30;1.40;;;;;;;16.51;100.00;100474.72;5267541;28;20028;-70
2022/05/24 07:53:21;;;;;;;5.65;1.55;;;;;;;16.53;100.00;100494.31;5279481;28;20367;-71
2022/05/24 07:55:54;;;;;;;6.72;1.50;;;;;;;16.98;100.00;100499.75;5282649;28;20027;-71
2022/05/24 07:58:26;;;;;;;4.80;1.23;;;;;;;17.08;100.00;100508.25;5287920;28;20028;-71
2022/05/24 08:00:58;;;;;;;6.53;1.40;;;;;;;16.06;100.00;100504.38;5273970;28;20045;-71
2022/05/24 08:03:29;;;;;;;5.18;1.10;;;;;;;15.43;100.00;100503.97;5276024;28;20051;-71
2022/05/24 08:06:00;;;;;;;6.32;1.52;;;;;;;15.80;100.00;100510.66;5280282;28;20016;-71
2022/05/24 08:08:30;;;;;;;12.50;1.30;;;;;;;15.52;100.00;100510.84;5274342;28;20385;-70
2022/05/24 08:11:01;;;;;;;7.55;1.88;;;;;;;15.43;100.00;100512.91;5279446;28;20386;-71
2022/05/24 08:13:32;;;;;;;7.97;1.10;;;;;;;15.53;100.00;100526.03;5266239;28;20027;-70
2022/05/24 08:16:03;;;;;;;2.97;1.13;;;;;;;15.37;100.00;100521.84;5282939;28;20050;-70
2022/05/24 08:18:34;;;;;;;6.13;1.48;;;;;;;15.02;100.00;100519.28;5273568;28;20028;-70
2022/05/24 08:21:04;;;;;;;5.40;1.30;;;;;;;14.91;100.00;100521.72;5277236;28;20442;-70
2022/05/24 08:23:35;;;;;;;7.88;1.13;;;;;;;15.32;100.00;100524.34;5279414;28;20089;-70
2022/05/24 08:26:06;;;;;;;12.55;1.23;;;;;;;15.85;100.00;100529.81;5277386;28;20020;-70
2022/05/24 08:28:37;;;;;;;4.68;1.20;;;;;;;16.42;100.00;100527.47;5281972;28;20020;-70
2022/05/24 08:31:09;;;;;;;5.20;1.52;;;;;;;17.21;100.00;100535.25;5266537;28;20103;-70
2022/05/24 08:33:40;;;;;;;7.38;0.70;;;;;;;17.81;100.00;100545.75;5272685;28;20036;-70
2022/05/24 08:36:11;;;;;;;4.45;1.65;;;;;;;17.53;100.00;100548.84;5272135;28;20039;-71
2022/05/24 08:38:42;;;;;;;4.65;1.05;;;;;;;17.46;100.00;100548.88;5265926;28;20055;-70
2022/05/24 08:41:25;;;;;;;7.95;1.80;;;;;;;17.06;100.00;100553.69;5281062;28;20118;-71
2022/05/24 08:50:19;;;;;;;3.40;1.10;;;;;;;17.22;100.00;100560.47;5265899;28;20027;-71
2022/05/24 08:52:56;;;;;;;4.38;1.15;;;;;;;17.72;100.00;100558.72;5278043;28;20032;-71
2022/05/24 08:55:27;;;;;;;5.00;0.82;;;;;;;17.97;100.00;100557.91;5265694;28;20020;-71
2022/05/24 08:57:59;;;;;;;3.28;0.82;;;;;;;17.65;100.00;100570.66;5279660;28;20071;-71
2022/05/24 09:00:35;;;;;;;3.95;1.10;;;;;;;17.01;100.00;100570.59;5265746;28;20473;-70
2022/05/24 09:03:08;;;;;;;1.70;0.90;;;;;;;16.34;100.00;100573.69;5278081;28;20477;-71
2022/05/24 09:05:46;;;;;;;5.60;0.80;;;;;;;16.30;100.00;100571.41;5273788;28;20560;-71
2022/05/24 09:08:26;;;;;;;1.75;0.90;;;;;;;17.51;100.00;100584.31;5284106;28;20016;-71
2022/05/24 09:11:31;;;;;;;4.40;0.70;;;;;;;17.98;100.00;100576.72;5284366;28;20112;-71
2022/05/24 09:14:24;;;;;;;3.38;0.90;;;;;;;17.83;100.00;100587.06;5270103;28;20039;-71
2022/05/24 09:17:02;;;;;;;6.05;1.00;;;;;;;17.91;100.00;100567.78;5270045;28;20027;-71
2022/05/24 09:19:35;;;;;;;4.50;1.00;;;;;;;18.05;100.00;100568.50;5275058;28;20480;-70
2022/05/24 09:22:07;;;;;;;5.40;0.82;;;;;;;17.63;100.00;100576.31;5275509;28;20508;-71
2022/05/24 09:24:56;;;;;;;3.65;0.82;;;;;;;18.19;100.00;100567.34;5273527;28;20041;-71
2022/05/24 09:27:28;;;;;;;7.30;1.08;;;;;;;18.20;100.00;100574.44;5287278;28;20094;-71
2022/05/24 09:30:02;;;;;;;10.00;1.83;;;;;;;17.59;100.00;100572.38;5287833;28;20024;-71
2022/05/24 09:32:37;;;;;;;1.90;0.88;;;;;;;17.21;100.00;100572.38;5287425;28;20058;-71
2022/05/24 09:35:09;;;;;;;5.70;0.50;;;;;;;16.67;100.00;100560.09;5287777;28;20112;-71
2022/05/24 09:37:42;;;;;;;2.60;0.70;;;;;;;16.39;100.00;100572.00;5286163;28;20088;-71
2022/05/24 09:40:42;;;;;;;1.10;0.60;;;;;;;16.24;100.00;100582.25;5287567;28;20034;-71
2022/05/24 09:43:18;;;;;;;3.92;0.98;;;;;;;16.03;100.00;100586.00;5287636;28;20038;-71
2022/05/24 09:46:04;;;;;;;4.63;1.02;;;;;;;16.14;100.00;100581.84;5288123;28;20028;-71
2022/05/24 09:48:49;;;;;;;6.15;1.02;;;;;;;16.08;100.00;100591.63;5278311;28;20033;-71
2022/05/24 09:51:26;;;;;;;2.75;1.00;;;;;;;16.10;100.00;100592.22;5279689;28;20043;-71
2022/05/24 09:53:56;;;;;;;5.00;1.35;;;;;;;16.68;100.00;100595.06;5278354;28;20455;-71
2022/05/24 09:56:33;;;;;;;2.35;0.80;;;;;;;17.53;100.00;100598.50;5273626;28;20065;-71
2022/05/24 09:59:07;;;;;;;4.78;1.27;;;;;;;17.90;100.00;100592.44;5287250;28;20034;-71
2022/05/24 10:01:41;;;;;;;1.58;0.90;;;;;;;18.80;100.00;100590.97;5286599;28;20033;-71
2022/05/24 10:04:33;;;;;;;2.40;0.73;;;;;;;18.58;100.00;100606.88;5285245;28;20023;-71
2022/05/24 10:07:08;;;;;;;3.13;1.05;;;;;;;18.17;100.00;100596.56;5282253;28;20050;-71
2022/05/24 10:09:49;;;;;;;5.38;1.00;;;;;;;17.97;100.00;100601.34;5277678;28;20141;-72
2022/05/24 10:12:40;;;;;;;3.97;0.90;;;;;;;17.65;100.00;100590.47;5279509;28;20501;-71
2022/05/24 10:15:11;;;;;;;2.45;0.70;;;;;;;17.62;100.00;100593.66;5279198;28;20031;-71
2022/05/24 10:18:01;;;;;;;3.72;0.90;;;;;;;17.57;100.00;100607.00;5265850;28;20481;-71
2022/05/24 10:21:00;;;;;;;2.58;0.75;;;;;;;17.85;100.00;100596.63;5284372;28;20027;-71
2022/05/24 10:23:46;;;;;;;7.50;0.77;;;;;;;17.39;100.00;100606.94;5286712;28;20222;-71
2022/05/24 10:26:41;;;;;;;3.67;0.70;;;;;;;16.53;100.00;100614.28;5286549;28;20485;-71
2022/05/24 10:29:49;;;;;;;2.05;0.85;;;;;;;15.47;100.00;100621.47;5287454;28;20027;-71
2022/05/24 10:39:08;;;;;;;2.92;0.88;;;;;;;15.25;100.00;100615.34;5287705;28;20055;-71
2022/05/24 10:41:50;;;;;;;5.28;0.95;;;;;;;15.84;100.00;100616.56;5287512;28;20080;-71
2022/05/24 10:44:30;;;;;;;4.35;1.42;;;;;;;16.65;100.00;100617.16;5273663;27;20111;-71
2022/05/24 10:47:38;;;;;;;1.88;0.90;;;;;;;17.29;100.00;100623.66;5287831;28;20031;-71
2022/05/24 10:50:14;;;;;;;2.70;0.93;;;;;;;17.95;100.00;100622.44;5279446;28;20150;-71
2022/05/24 10:53:03;;;;;;;2.13;1.00;;;;;;;18.13;100.00;100630.69;5269670;28;20027;-71
2022/05/24 10:55:39;;;;;;;5.55;1.05;;;;;;;17.28;100.00;100636.38;5273322;28;20020;-72
2022/05/24 10:58:13;;;;;;;5.13;1.38;;;;;;;15.99;100.00;100636.97;5273859;28;20207;-71
2022/05/24 11:01:16;;;;;;;7.78;1.58;;;;;;;15.79;100.00;100642.38;5286943;28;20088;-72
2022/05/24 11:03:51;;;;;;;5.20;1.48;;;;;;;15.72;100.00;100635.28;5287401;28;20027;-72
2022/05/24 11:06:29;;;;;;;5.07;1.03;;;;;;;15.80;100.00;100635.91;5286679;27;20019;-72
2022/05/24 11:09:05;;;;;;;8.18;1.52;;;;;;;16.26;100.00;100626.97;5287121;28;20098;-72
2022/05/24 11:11:46;;;;;;;3.97;1.40;;;;;;;17.12;100.00;100636.88;5287474;28;20119;-72
2022/05/24 11:14:52;;;;;;;4.03;1.48;;;;;;;17.85;100.00;100629.19;5285869;28;20019;-72
2022/05/24 11:17:23;;;;;;;2.28;0.93;;;;;;;17.83;100.00;100631.31;5267453;28;20047;-72
2022/05/24 11:19:55;;;;;;;3.58;1.00;;;;;;;18.04;100.00;100643.69;5265964;28;20440;-72
2022/05/24 11:22:33;;;;;;;5.65;1.00;;;;;;;17.95;100.00;100636.03;5285781;28;20100;-72
2022/05/24 11:25:25;;;;;;;2.10;0.80;;;;;;;17.95;100.00;100633.31;5272409;28;20024;-72
2022/05/24 11:27:57;;;;;;;4.50;0.98;;;;;;;18.00;100.00;100633.47;5286446;28;20039;-71
2022/05/24 11:30:27;;;;;;;3.95;0.70;;;;;;;17.57;100.00;100647.69;5286056;28;20027;-72
2022/05/24 11:33:15;;;;;;;1.20;0.60;;;;;;;17.51;100.00;100643.97;5286316;28;20496;-72
2022/05/24 11:35:50;;;;;;;1.75;0.70;;;;;;;17.72;100.00;100641.97;5286151;28;20015;-72
2022/05/24 11:38:21;;;;;;;2.42;0.40;;;;;;;18.38;100.00;100649.69;5280170;28;20166;-72
2022/05/24 11:41:12;;;;;;;2.88;0.70;;;;;;;18.31;100.00;100647.00;5265528;28;20454;-72
2022/05/24 11:43:43;;;;;;;3.70;0.80;;;;;;;17.65;100.00;100682.72;5274249;28;20031;-72
2022/05/24 11:46:33;;;;;;;3.22;0.57;;;;;;;16.22;100.00;100679.06;5285545;28;20086;-72
2022/05/24 11:49:09;;;;;;;5.22;0.75;;;;;;;15.36;100.00;100700.41;5272747;28;20117;-71
2022/05/24 11:51:56;;;;;;;1.92;0.60;;;;;;;14.71;100.00;100711.50;5265176;28;20077;-72
2022/05/24 11:54:27;;;;;;;6.00;0.93;;;;;;;14.61;100.00;100705.59;5282453;28;20034;-71
2022/05/24 11:57:17;;;;;;;2.53;0.82;;;;;;;14.71;100.00;100713.38;5286355;28;20027;-72
2022/05/24 11:59:50;;;;;;;3.80;0.90;;;;;;;15.41;100.00;100711.47;5285968;28;20026;-71
2022/05/24 12:02:24;;;;;;;4.95;1.10;;;;;;;15.51;100.00;100701.09;5285333;27;20016;-71
2022/05/24 12:08:02;;;;;;;3.38;0.77;;;;;;;16.52;100.00;100706.56;5294059;27;20035;-71
2022/05/24 12:10:49;;;;;;;2.25;0.73;;;;;;;16.79;100.00;100704.69;5272129;28;20024;-72
2022/05/24 12:13:56;;;;;;;3.40;0.93;;;;;;;17.20;100.00;100714.41;5285735;27;20468;-71
2022/05/24 12:16:43;;;;;;;1.08;0.70;;;;;;;17.60;100.00;100701.53;5274790;28;20114;-71
2022/05/24 12:19:32;;;;;;;3.08;0.70;;;;;;;17.91;100.00;100717.03;5285056;28;20035;-71
2022/05/24 12:22:07;;;;;;;3.75;0.90;;;;;;;17.87;100.00;100713.09;5285495;28;20033;-71
2022/05/24 12:24:38;;;;;;;11.60;2.05;;;;;;;17.91;100.00;100705.34;5285630;28;20102;-71
2022/05/24 12:27:44;;;;;;;2.38;1.02;;;;;;;17.42;100.00;100704.94;5280158;28;20020;-71
2022/05/24 12:30:30;;;;;;;;;;;;;;;17.77;100.00;100716.31;5269333;28;20023;-71
2022/05/24 12:33:30;;;;;;;2.33;0.70;;;;;;;17.90;100.00;100709.13;5286225;28;19919;-71
2022/05/24 12:36:20;;;;;;;2.25;0.73;;;;;;;18.19;100.00;100722.09;5285416;27;20261;-71
2022/05/24 12:39:01;;;;;;;3.92;0.85;;;;;;;18.22;100.00;100729.78;5276510;28;20023;-71
2022/05/24 12:41:46;;;;;;;2.30;0.70;;;;;;;18.33;100.00;100723.66;5281961;28;20032;-71